TimePDT,TemperatureF,Dew PointF,Humidity,Sea Level PressureIn,VisibilityMPH,Wind Direction,Wind SpeedMPH,Gust SpeedMPH,PrecipitationIn,Events,Conditions,WindDirDegrees,DateUTC
12:00 AM,53.2,49.5,87,30.39,-9999.0,WSW,1.2,-,N/A,,Unknown,250,2012-10-01 07:00:00
1:00 AM,52.3,48.7,88,30.38,-9999.0,ENE,1.2,-,N/A,,Unknown,60,2012-10-01 08:00:00
2:00 AM,48.9,46.6,92,30.38,-9999.0,East,2.3,-,N/A,,Unknown,80,2012-10-01 09:00:00
3:00 AM,49.5,46.9,91,30.36,-9999.0,Calm,Calm,-,N/A,,Unknown,0,2012-10-01 10:00:00
4:00 AM,49.6,47.5,92,30.36,-9999.0,WNW,2.3,-,N/A,,Unknown,300,2012-10-01 11:00:00
5:00 AM,47,46,95,30.35,,Calm,Calm,,,,,,2012-10-01 12:00:00
5:00 AM,47.5,46.0,95,30.35,-9999.0,Calm,Calm,-,N/A,,Unknown,0,2012-10-01 12:00:00
6:00 AM,46.9,45.3,94,30.35,-9999.0,Calm,Calm,-,N/A,,Unknown,0,2012-10-01 13:00:00
7:00 AM,47.1,45.7,95,30.34,-9999.0,East,1.2,-,N/A,,Unknown,80,2012-10-01 14:00:00
8:00 AM,48.6,46.9,94,30.32,-9999.0,East,1.2,-,N/A,,Unknown,80,2012-10-01 15:00:00
9:00 AM,54.5,49.6,84,30.30,-9999.0,SE,1.2,-,N/A,,Unknown,130,2012-10-01 16:00:00
10:00 AM,55.9,48.9,77,30.29,-9999.0,ENE,3.5,-,N/A,,Unknown,70,2012-10-01 17:00:00
11:00 AM,58,49,65,30.27,,ESE,1.2,,,,,120,2012-10-01 18:00:00
11:00 AM,58.5,49.3,72,30.27,-9999.0,ESE,1.2,-,N/A,,Unknown,120,2012-10-01 18:00:00
12:00 PM,60.6,47.5,62,30.24,-9999.0,ENE,3.5,-,N/A,,Unknown,70,2012-10-01 19:00:00
1:00 PM,61.9,49.3,63,30.23,-9999.0,North,2.3,-,N/A,,Unknown,10,2012-10-01 20:00:00
2:00 PM,62.2,49.8,64,30.19,-9999.0,NE,3.5,-,N/A,,Unknown,40,2012-10-01 21:00:00
3:00 PM,63.9,49.3,59,30.17,-9999.0,North,3.5,-,N/A,,Unknown,10,2012-10-01 22:00:00
4:00 PM,64.8,48.4,55,30.14,-9999.0,Calm,Calm,-,N/A,,Unknown,0,2012-10-01 23:00:00
5:00 PM,66,48,42,30.11,,NNW,1.2,,,,,340,2012-10-02 00:00:00
5:00 PM,65.8,48.4,53,30.11,-9999.0,NNW,1.2,-,N/A,,Unknown,340,2012-10-02 00:00:00
6:00 PM,64.4,50.2,60,30.09,-9999.0,NNE,2.3,-,N/A,,Unknown,20,2012-10-02 01:00:00
8:00 PM,60.1,51.8,74,30.09,-9999.0,Calm,Calm,-,N/A,,Unknown,0,2012-10-02 03:00:00
9:00 PM,59.4,52.5,78,30.10,-9999.0,WSW,5.8,-,N/A,,Unknown,250,2012-10-02 04:00:00
10:00 PM,57.4,50.0,76,30.11,-9999.0,SW,3.5,-,N/A,,Unknown,230,2012-10-02 05:00:00
11:00 PM,57,50,69,30.12,,WNW,4.6,,,,,300,2012-10-02 06:00:00